This is the latest recevied weather packets stored in our database for station/object KJ5IIV. If no packets are shown the sender has not sent any weather packets the latest 10 day(s).
| Time | Temp. | Humidity | Pressure | Rain* | Wind** | Luminosity | Snow |
|---|---|---|---|---|---|---|---|
| 1777815498 | 20.56° C | 57% | 1021.7 hPa | 0 mm | - | 309 W/m² | - |
| 1777815196 | 19.44° C | 57% | 1021.6 hPa | 0 mm | - | 288 W/m² | - |
| 1777814892 | 19.44° C | 62% | 1021.4 hPa | 0 mm | - | 280 W/m² | - |
| 1777814588 | 18.33° C | 72% | 1021.6 hPa | 0 mm | - | 263 W/m² | - |
| 1777814286 | 18.89° C | 72% | 1021.7 hPa | 0 mm | - | 243 W/m² | - |
| 1777813982 | 18.89° C | 67% | 1021.7 hPa | 0 mm | - | 227 W/m² | - |
| 1777813679 | 18.89° C | 63% | 1021.5 hPa | 0 mm | - | 210 W/m² | - |
| 1777813377 | 18.33° C | 67% | 1021.5 hPa | 0 mm | - | 190 W/m² | - |
| 1777813074 | 16.67° C | 69% | 1021.5 hPa | 0 mm | - | 176 W/m² | - |
| 1777812772 | 16.11° C | 74% | 1021.6 hPa | 0 mm | - | 168 W/m² | - |
| 1777812468 | 15° C | 80% | 1021.5 hPa | 0 mm | - | 123 W/m² | - |
| 1777812166 | 13.89° C | 83% | 1021.4 hPa | 0 mm | - | 97 W/m² | - |
| 1777811864 | 12.22° C | 87% | 1021.4 hPa | 0 mm | - | 87 W/m² | - |
| 1777811563 | 11.11° C | 90% | 1021.5 hPa | 0 mm | - | 68 W/m² | - |
| 1777811258 | 11.11° C | 90% | 1021.4 hPa | 0 mm | - | 48 W/m² | - |
| 1777810955 | 11.11° C | 90% | 1021.6 hPa | 0 mm | - | 44 W/m² | - |
| 1777810651 | 11.11° C | 90% | 1021.3 hPa | 0 mm | - | 36 W/m² | - |
| 1777810349 | 11.11° C | 90% | 1021.2 hPa | 0 mm | - | 35 W/m² | - |
| 1777810044 | 11.11° C | 90% | 1021.2 hPa | 0 mm | - | 29 W/m² | - |
| 1777809743 | 11.11° C | 90% | 1021.1 hPa | 0 mm | - | 26 W/m² | - |
| 1777809440 | 11.11° C | 89% | 1021.2 hPa | 0 mm | - | 20 W/m² | - |
| 1777809138 | 11.11° C | 88% | 1020.9 hPa | 0 mm | - | 17 W/m² | - |
| 1777808835 | 11.67° C | 87% | 1020.9 hPa | 0 mm | - | 12 W/m² | - |
| 1777808531 | 11.67° C | 85% | 1020.8 hPa | 0 mm | - | 8 W/m² | - |
| 1777808229 | 12.22° C | 84% | 1020.8 hPa | 0 mm | - | 6 W/m² | - |
* Rain latest hour (hover to see other rain measurements)
** Current wind speed in m/s (hover to see current wind gust speed)